sensor_id;sensor_type;location;lat;lon;timestamp;P1;durP1;ratioP1;P2;durP2;ratioP2
72584;SDS011;60618;40.084;32.908;2023-02-03T00:02:05;12.68;;;5.85;;
72584;SDS011;60618;40.084;32.908;2023-02-03T00:04:32;12.43;;;5.75;;
72584;SDS011;60618;40.084;32.908;2023-02-03T00:06:58;13.17;;;5.70;;
72584;SDS011;60618;40.084;32.908;2023-02-03T00:09:25;14.75;;;6.10;;
72584;SDS011;60618;40.084;32.908;2023-02-03T00:11:53;12.30;;;6.00;;
72584;SDS011;60618;40.084;32.908;2023-02-03T00:14:20;13.65;;;6.25;;
72584;SDS011;60618;40.084;32.908;2023-02-03T00:16:47;13.25;;;6.15;;
72584;SDS011;60618;40.084;32.908;2023-02-03T00:19:14;13.83;;;6.70;;
72584;SDS011;60618;40.084;32.908;2023-02-03T00:21:43;14.20;;;6.22;;
72584;SDS011;60618;40.084;32.908;2023-02-03T00:24:10;13.65;;;5.93;;
72584;SDS011;60618;40.084;32.908;2023-02-03T00:26:40;14.27;;;5.88;;
72584;SDS011;60618;40.084;32.908;2023-02-03T00:29:09;14.07;;;6.00;;
72584;SDS011;60618;40.084;32.908;2023-02-03T00:31:36;14.93;;;6.43;;
72584;SDS011;60618;40.084;32.908;2023-02-03T00:34:03;13.52;;;6.18;;
72584;SDS011;60618;40.084;32.908;2023-02-03T00:36:30;13.68;;;6.40;;
72584;SDS011;60618;40.084;32.908;2023-02-03T00:38:59;15.02;;;6.50;;
72584;SDS011;60618;40.084;32.908;2023-02-03T00:41:27;15.75;;;7.47;;
72584;SDS011;60618;40.084;32.908;2023-02-03T00:43:56;16.23;;;7.40;;
72584;SDS011;60618;40.084;32.908;2023-02-03T00:46:23;16.23;;;7.38;;
72584;SDS011;60618;40.084;32.908;2023-02-03T00:48:50;15.07;;;6.47;;
72584;SDS011;60618;40.084;32.908;2023-02-03T00:51:17;15.98;;;7.05;;
72584;SDS011;60618;40.084;32.908;2023-02-03T00:53:44;15.82;;;6.70;;
72584;SDS011;60618;40.084;32.908;2023-02-03T00:56:11;15.37;;;6.83;;
72584;SDS011;60618;40.084;32.908;2023-02-03T00:58:38;15.20;;;7.07;;
72584;SDS011;60618;40.084;32.908;2023-02-03T01:01:06;16.35;;;7.13;;
72584;SDS011;60618;40.084;32.908;2023-02-03T01:03:33;18.88;;;8.10;;
72584;SDS011;60618;40.084;32.908;2023-02-03T01:06:14;19.52;;;7.70;;
72584;SDS011;60618;40.084;32.908;2023-02-03T01:08:42;17.73;;;7.27;;
72584;SDS011;60618;40.084;32.908;2023-02-03T01:11:12;18.23;;;8.27;;
72584;SDS011;60618;40.084;32.908;2023-02-03T01:13:41;19.23;;;8.50;;
72584;SDS011;60618;40.084;32.908;2023-02-03T01:16:09;21.23;;;8.57;;
72584;SDS011;60618;40.084;32.908;2023-02-03T01:18:37;18.42;;;7.88;;
72584;SDS011;60618;40.084;32.908;2023-02-03T01:21:08;20.77;;;8.10;;
72584;SDS011;60618;40.084;32.908;2023-02-03T01:23:37;18.80;;;7.70;;
72584;SDS011;60618;40.084;32.908;2023-02-03T01:26:05;17.20;;;7.43;;
72584;SDS011;60618;40.084;32.908;2023-02-03T01:28:37;20.88;;;8.30;;
72584;SDS011;60618;40.084;32.908;2023-02-03T01:31:12;21.80;;;8.43;;
72584;SDS011;60618;40.084;32.908;2023-02-03T01:33:41;20.33;;;8.23;;
72584;SDS011;60618;40.084;32.908;2023-02-03T01:36:08;19.92;;;8.02;;
72584;SDS011;60618;40.084;32.908;2023-02-03T01:38:36;20.50;;;8.60;;
72584;SDS011;60618;40.084;32.908;2023-02-03T01:41:04;22.02;;;8.52;;
72584;SDS011;60618;40.084;32.908;2023-02-03T01:43:36;22.25;;;8.88;;
72584;SDS011;60618;40.084;32.908;2023-02-03T01:48:50;20.75;;;8.02;;
72584;SDS011;60618;40.084;32.908;2023-02-03T01:51:20;20.25;;;8.43;;
72584;SDS011;60618;40.084;32.908;2023-02-03T01:53:48;20.85;;;9.00;;
72584;SDS011;60618;40.084;32.908;2023-02-03T01:56:17;21.83;;;9.50;;
72584;SDS011;60618;40.084;32.908;2023-02-03T01:58:44;19.93;;;8.13;;
72584;SDS011;60618;40.084;32.908;2023-02-03T02:01:12;22.58;;;8.63;;
72584;SDS011;60618;40.084;32.908;2023-02-03T02:03:41;22.67;;;9.00;;
72584;SDS011;60618;40.084;32.908;2023-02-03T02:06:16;20.20;;;8.57;;
72584;SDS011;60618;40.084;32.908;2023-02-03T02:08:43;21.48;;;9.10;;
72584;SDS011;60618;40.084;32.908;2023-02-03T02:11:13;22.93;;;9.17;;
72584;SDS011;60618;40.084;32.908;2023-02-03T02:13:40;21.45;;;9.38;;
72584;SDS011;60618;40.084;32.908;2023-02-03T02:16:17;23.08;;;9.05;;
72584;SDS011;60618;40.084;32.908;2023-02-03T02:19:16;19.70;;;8.57;;
72584;SDS011;60618;40.084;32.908;2023-02-03T02:27:41;20.42;;;8.93;;
72584;SDS011;60618;40.084;32.908;2023-02-03T02:33:40;19.15;;;8.57;;
72584;SDS011;60618;40.084;32.908;2023-02-03T02:36:32;20.65;;;9.02;;
72584;SDS011;60618;40.084;32.908;2023-02-03T02:39:09;22.60;;;9.52;;
72584;SDS011;60618;40.084;32.908;2023-02-03T02:41:47;19.83;;;8.77;;
72584;SDS011;60618;40.084;32.908;2023-02-03T02:44:22;23.30;;;10.23;;
72584;SDS011;60618;40.084;32.908;2023-02-03T02:46:56;25.73;;;10.57;;
72584;SDS011;60618;40.084;32.908;2023-02-03T02:50:15;26.58;;;10.90;;
72584;SDS011;60618;40.084;32.908;2023-02-03T02:52:20;26.98;;;10.73;;
72584;SDS011;60618;40.084;32.908;2023-02-03T02:54:50;24.45;;;9.88;;
72584;SDS011;60618;40.084;32.908;2023-02-03T02:57:19;21.33;;;9.55;;
72584;SDS011;60618;40.084;32.908;2023-02-03T02:59:49;22.95;;;10.15;;
72584;SDS011;60618;40.084;32.908;2023-02-03T03:02:16;24.02;;;10.48;;
72584;SDS011;60618;40.084;32.908;2023-02-03T03:04:43;22.35;;;9.98;;
72584;SDS011;60618;40.084;32.908;2023-02-03T03:07:17;26.05;;;10.68;;
72584;SDS011;60618;40.084;32.908;2023-02-03T03:09:50;25.88;;;11.23;;
72584;SDS011;60618;40.084;32.908;2023-02-03T03:12:23;28.08;;;11.88;;
72584;SDS011;60618;40.084;32.908;2023-02-03T03:15:03;27.75;;;11.13;;
72584;SDS011;60618;40.084;32.908;2023-02-03T03:17:34;25.50;;;10.65;;
72584;SDS011;60618;40.084;32.908;2023-02-03T03:20:06;23.55;;;10.07;;
72584;SDS011;60618;40.084;32.908;2023-02-03T03:22:40;24.13;;;10.40;;
72584;SDS011;60618;40.084;32.908;2023-02-03T03:25:16;22.70;;;9.93;;
72584;SDS011;60618;40.084;32.908;2023-02-03T03:27:56;23.65;;;9.57;;
72584;SDS011;60618;40.084;32.908;2023-02-03T03:30:33;25.33;;;9.65;;
72584;SDS011;60618;40.084;32.908;2023-02-03T03:33:02;24.55;;;9.77;;
72584;SDS011;60618;40.084;32.908;2023-02-03T03:38:35;22.05;;;10.52;;
72584;SDS011;60618;40.084;32.908;2023-02-03T03:41:19;23.55;;;10.27;;
72584;SDS011;60618;40.084;32.908;2023-02-03T03:43:56;25.63;;;10.65;;
72584;SDS011;60618;40.084;32.908;2023-02-03T03:46:37;21.92;;;10.40;;
72584;SDS011;60618;40.084;32.908;2023-02-03T03:49:09;25.90;;;11.05;;
72584;SDS011;60618;40.084;32.908;2023-02-03T03:54:35;26.08;;;11.18;;
72584;SDS011;60618;40.084;32.908;2023-02-03T03:57:08;24.20;;;9.90;;
72584;SDS011;60618;40.084;32.908;2023-02-03T03:59:45;23.08;;;10.25;;
72584;SDS011;60618;40.084;32.908;2023-02-03T04:02:15;22.88;;;9.70;;
72584;SDS011;60618;40.084;32.908;2023-02-03T04:04:44;23.33;;;10.30;;
72584;SDS011;60618;40.084;32.908;2023-02-03T04:07:13;24.20;;;10.35;;
72584;SDS011;60618;40.084;32.908;2023-02-03T04:09:41;23.23;;;10.45;;
72584;SDS011;60618;40.084;32.908;2023-02-03T04:12:12;21.50;;;9.00;;
72584;SDS011;60618;40.084;32.908;2023-02-03T04:14:49;21.13;;;8.80;;
72584;SDS011;60618;40.084;32.908;2023-02-03T04:17:16;21.73;;;8.95;;
72584;SDS011;60618;40.084;32.908;2023-02-03T04:19:43;22.73;;;9.30;;
72584;SDS011;60618;40.084;32.908;2023-02-03T04:22:10;21.30;;;9.05;;
72584;SDS011;60618;40.084;32.908;2023-02-03T04:24:36;17.20;;;8.20;;
72584;SDS011;60618;40.084;32.908;2023-02-03T04:27:03;17.85;;;8.70;;
72584;SDS011;60618;40.084;32.908;2023-02-03T04:29:30;20.95;;;8.38;;
72584;SDS011;60618;40.084;32.908;2023-02-03T04:31:57;20.92;;;9.30;;
72584;SDS011;60618;40.084;32.908;2023-02-03T04:34:24;20.92;;;8.40;;
72584;SDS011;60618;40.084;32.908;2023-02-03T04:36:51;22.83;;;9.07;;
72584;SDS011;60618;40.084;32.908;2023-02-03T04:39:18;25.15;;;10.18;;
72584;SDS011;60618;40.084;32.908;2023-02-03T04:41:45;24.17;;;9.82;;
72584;SDS011;60618;40.084;32.908;2023-02-03T04:44:12;25.20;;;10.40;;
72584;SDS011;60618;40.084;32.908;2023-02-03T04:46:39;26.17;;;9.90;;
72584;SDS011;60618;40.084;32.908;2023-02-03T04:49:06;23.60;;;9.88;;
72584;SDS011;60618;40.084;32.908;2023-02-03T04:51:33;25.00;;;9.75;;
72584;SDS011;60618;40.084;32.908;2023-02-03T04:53:59;26.35;;;9.85;;
72584;SDS011;60618;40.084;32.908;2023-02-03T04:56:26;21.52;;;8.88;;
72584;SDS011;60618;40.084;32.908;2023-02-03T04:58:53;18.23;;;8.43;;
72584;SDS011;60618;40.084;32.908;2023-02-03T05:01:20;20.85;;;8.05;;
72584;SDS011;60618;40.084;32.908;2023-02-03T05:03:47;17.90;;;8.07;;
72584;SDS011;60618;40.084;32.908;2023-02-03T05:06:14;17.48;;;7.20;;
72584;SDS011;60618;40.084;32.908;2023-02-03T05:08:41;18.02;;;7.55;;
72584;SDS011;60618;40.084;32.908;2023-02-03T05:11:08;17.77;;;7.20;;
72584;SDS011;60618;40.084;32.908;2023-02-03T05:13:35;17.60;;;7.00;;
72584;SDS011;60618;40.084;32.908;2023-02-03T05:16:02;17.73;;;7.80;;
72584;SDS011;60618;40.084;32.908;2023-02-03T05:18:30;21.25;;;8.68;;
72584;SDS011;60618;40.084;32.908;2023-02-03T05:20:57;20.13;;;9.23;;
72584;SDS011;60618;40.084;32.908;2023-02-03T05:23:23;19.45;;;8.05;;
72584;SDS011;60618;40.084;32.908;2023-02-03T05:25:50;22.60;;;8.57;;
72584;SDS011;60618;40.084;32.908;2023-02-03T05:28:18;20.55;;;8.43;;
72584;SDS011;60618;40.084;32.908;2023-02-03T05:30:46;19.90;;;9.80;;
72584;SDS011;60618;40.084;32.908;2023-02-03T05:33:13;19.00;;;9.10;;
72584;SDS011;60618;40.084;32.908;2023-02-03T05:35:40;18.45;;;9.00;;
72584;SDS011;60618;40.084;32.908;2023-02-03T05:38:07;19.15;;;7.40;;
72584;SDS011;60618;40.084;32.908;2023-02-03T05:40:34;20.08;;;7.93;;
72584;SDS011;60618;40.084;32.908;2023-02-03T05:43:01;14.77;;;6.57;;
72584;SDS011;60618;40.084;32.908;2023-02-03T05:45:29;18.60;;;7.55;;
72584;SDS011;60618;40.084;32.908;2023-02-03T05:47:56;16.17;;;7.00;;
72584;SDS011;60618;40.084;32.908;2023-02-03T05:50:23;15.52;;;7.07;;
72584;SDS011;60618;40.084;32.908;2023-02-03T05:52:50;16.77;;;7.82;;
72584;SDS011;60618;40.084;32.908;2023-02-03T05:55:17;16.00;;;7.22;;
72584;SDS011;60618;40.084;32.908;2023-02-03T05:57:44;16.00;;;7.38;;
72584;SDS011;60618;40.084;32.908;2023-02-03T06:00:12;16.42;;;7.68;;
72584;SDS011;60618;40.084;32.908;2023-02-03T06:02:39;16.55;;;7.30;;
72584;SDS011;60618;40.084;32.908;2023-02-03T06:05:06;20.10;;;7.95;;
72584;SDS011;60618;40.084;32.908;2023-02-03T06:07:34;19.08;;;7.90;;
72584;SDS011;60618;40.084;32.908;2023-02-03T06:10:01;20.50;;;8.40;;
72584;SDS011;60618;40.084;32.908;2023-02-03T06:12:28;19.35;;;8.13;;
72584;SDS011;60618;40.084;32.908;2023-02-03T06:14:55;18.00;;;7.13;;
72584;SDS011;60618;40.084;32.908;2023-02-03T06:17:22;17.90;;;7.78;;
72584;SDS011;60618;40.084;32.908;2023-02-03T06:19:49;17.60;;;8.07;;
72584;SDS011;60618;40.084;32.908;2023-02-03T06:22:16;17.70;;;8.18;;
72584;SDS011;60618;40.084;32.908;2023-02-03T06:24:43;18.27;;;8.40;;
72584;SDS011;60618;40.084;32.908;2023-02-03T06:27:13;18.52;;;8.07;;
72584;SDS011;60618;40.084;32.908;2023-02-03T06:29:40;16.70;;;8.32;;
72584;SDS011;60618;40.084;32.908;2023-02-03T06:32:10;20.38;;;8.25;;
72584;SDS011;60618;40.084;32.908;2023-02-03T06:34:40;21.85;;;8.77;;
72584;SDS011;60618;40.084;32.908;2023-02-03T06:37:07;19.60;;;8.15;;
72584;SDS011;60618;40.084;32.908;2023-02-03T06:39:34;15.88;;;8.35;;
72584;SDS011;60618;40.084;32.908;2023-02-03T06:42:01;20.77;;;8.68;;
72584;SDS011;60618;40.084;32.908;2023-02-03T06:44:28;19.25;;;9.00;;
72584;SDS011;60618;40.084;32.908;2023-02-03T06:46:55;21.02;;;8.65;;
72584;SDS011;60618;40.084;32.908;2023-02-03T06:49:22;18.75;;;8.48;;
72584;SDS011;60618;40.084;32.908;2023-02-03T06:51:49;21.15;;;9.25;;
72584;SDS011;60618;40.084;32.908;2023-02-03T06:54:16;18.65;;;8.68;;
72584;SDS011;60618;40.084;32.908;2023-02-03T06:56:46;19.75;;;8.88;;
72584;SDS011;60618;40.084;32.908;2023-02-03T06:59:14;18.17;;;8.68;;
72584;SDS011;60618;40.084;32.908;2023-02-03T07:01:40;18.25;;;8.23;;
72584;SDS011;60618;40.084;32.908;2023-02-03T07:04:07;16.52;;;8.20;;
72584;SDS011;60618;40.084;32.908;2023-02-03T07:06:38;16.05;;;8.40;;
72584;SDS011;60618;40.084;32.908;2023-02-03T07:09:05;17.60;;;8.30;;
72584;SDS011;60618;40.084;32.908;2023-02-03T07:11:32;19.77;;;9.38;;
72584;SDS011;60618;40.084;32.908;2023-02-03T07:13:59;19.25;;;9.10;;
72584;SDS011;60618;40.084;32.908;2023-02-03T07:16:26;17.15;;;8.02;;
72584;SDS011;60618;40.084;32.908;2023-02-03T07:18:52;16.90;;;8.07;;
72584;SDS011;60618;40.084;32.908;2023-02-03T07:21:19;18.63;;;9.35;;
72584;SDS011;60618;40.084;32.908;2023-02-03T07:23:47;20.98;;;9.07;;
72584;SDS011;60618;40.084;32.908;2023-02-03T07:26:15;21.77;;;10.38;;
72584;SDS011;60618;40.084;32.908;2023-02-03T07:28:43;29.13;;;12.52;;
72584;SDS011;60618;40.084;32.908;2023-02-03T07:31:10;30.58;;;14.07;;
72584;SDS011;60618;40.084;32.908;2023-02-03T07:33:37;34.60;;;15.13;;
72584;SDS011;60618;40.084;32.908;2023-02-03T07:36:05;38.15;;;16.55;;
72584;SDS011;60618;40.084;32.908;2023-02-03T07:38:32;44.50;;;20.40;;
72584;SDS011;60618;40.084;32.908;2023-02-03T07:40:59;44.95;;;19.13;;
72584;SDS011;60618;40.084;32.908;2023-02-03T07:43:26;35.05;;;16.73;;
72584;SDS011;60618;40.084;32.908;2023-02-03T07:45:53;34.42;;;14.90;;
72584;SDS011;60618;40.084;32.908;2023-02-03T07:48:20;26.63;;;12.48;;
72584;SDS011;60618;40.084;32.908;2023-02-03T07:50:47;18.48;;;8.98;;
72584;SDS011;60618;40.084;32.908;2023-02-03T07:53:14;15.82;;;7.00;;
72584;SDS011;60618;40.084;32.908;2023-02-03T07:55:41;14.63;;;6.95;;
72584;SDS011;60618;40.084;32.908;2023-02-03T07:58:08;15.00;;;7.47;;
72584;SDS011;60618;40.084;32.908;2023-02-03T08:00:35;14.93;;;7.53;;
72584;SDS011;60618;40.084;32.908;2023-02-03T08:03:02;15.77;;;7.97;;
72584;SDS011;60618;40.084;32.908;2023-02-03T08:05:29;18.08;;;8.13;;
72584;SDS011;60618;40.084;32.908;2023-02-03T08:07:56;15.88;;;7.72;;
72584;SDS011;60618;40.084;32.908;2023-02-03T08:10:23;15.38;;;8.10;;
72584;SDS011;60618;40.084;32.908;2023-02-03T08:12:54;17.75;;;8.10;;
72584;SDS011;60618;40.084;32.908;2023-02-03T08:15:21;18.23;;;9.43;;
72584;SDS011;60618;40.084;32.908;2023-02-03T08:17:48;17.63;;;9.50;;
72584;SDS011;60618;40.084;32.908;2023-02-03T08:20:16;17.67;;;9.00;;
72584;SDS011;60618;40.084;32.908;2023-02-03T08:22:43;20.98;;;9.73;;
72584;SDS011;60618;40.084;32.908;2023-02-03T08:25:11;19.95;;;9.15;;
72584;SDS011;60618;40.084;32.908;2023-02-03T08:27:38;17.65;;;8.60;;
72584;SDS011;60618;40.084;32.908;2023-02-03T08:30:06;16.70;;;9.10;;
72584;SDS011;60618;40.084;32.908;2023-02-03T08:32:35;21.00;;;9.25;;
72584;SDS011;60618;40.084;32.908;2023-02-03T08:35:02;18.20;;;9.95;;
72584;SDS011;60618;40.084;32.908;2023-02-03T08:37:29;21.00;;;10.73;;
72584;SDS011;60618;40.084;32.908;2023-02-03T08:39:56;21.42;;;10.57;;
72584;SDS011;60618;40.084;32.908;2023-02-03T08:42:24;20.50;;;10.70;;
72584;SDS011;60618;40.084;32.908;2023-02-03T08:44:51;20.70;;;10.20;;
72584;SDS011;60618;40.084;32.908;2023-02-03T08:47:20;19.75;;;9.80;;
72584;SDS011;60618;40.084;32.908;2023-02-03T08:49:47;20.40;;;9.30;;
72584;SDS011;60618;40.084;32.908;2023-02-03T08:52:17;16.70;;;9.00;;
72584;SDS011;60618;40.084;32.908;2023-02-03T08:54:45;17.52;;;8.88;;
72584;SDS011;60618;40.084;32.908;2023-02-03T08:57:13;16.85;;;8.88;;
72584;SDS011;60618;40.084;32.908;2023-02-03T08:59:41;16.63;;;8.52;;
72584;SDS011;60618;40.084;32.908;2023-02-03T09:02:13;18.35;;;9.73;;
72584;SDS011;60618;40.084;32.908;2023-02-03T09:04:43;18.58;;;9.32;;
72584;SDS011;60618;40.084;32.908;2023-02-03T09:07:11;21.65;;;10.23;;
72584;SDS011;60618;40.084;32.908;2023-02-03T09:09:38;19.38;;;10.10;;
72584;SDS011;60618;40.084;32.908;2023-02-03T09:12:05;20.25;;;9.82;;
72584;SDS011;60618;40.084;32.908;2023-02-03T09:14:33;16.38;;;8.88;;
72584;SDS011;60618;40.084;32.908;2023-02-03T09:17:00;20.95;;;9.77;;
72584;SDS011;60618;40.084;32.908;2023-02-03T09:19:29;16.40;;;8.90;;
72584;SDS011;60618;40.084;32.908;2023-02-03T09:22:00;16.73;;;8.52;;
72584;SDS011;60618;40.084;32.908;2023-02-03T09:24:27;18.45;;;8.95;;
72584;SDS011;60618;40.084;32.908;2023-02-03T09:26:54;16.90;;;8.77;;
72584;SDS011;60618;40.084;32.908;2023-02-03T09:29:22;17.77;;;9.23;;
72584;SDS011;60618;40.084;32.908;2023-02-03T09:31:49;18.27;;;9.05;;
72584;SDS011;60618;40.084;32.908;2023-02-03T09:34:17;17.20;;;8.55;;
72584;SDS011;60618;40.084;32.908;2023-02-03T09:36:45;17.98;;;9.07;;
72584;SDS011;60618;40.084;32.908;2023-02-03T09:39:13;17.67;;;8.40;;
72584;SDS011;60618;40.084;32.908;2023-02-03T09:41:47;15.45;;;7.97;;
72584;SDS011;60618;40.084;32.908;2023-02-03T09:47:20;14.90;;;7.70;;
72584;SDS011;60618;40.084;32.908;2023-02-03T09:50:00;16.17;;;7.28;;
72584;SDS011;60618;40.084;32.908;2023-02-03T09:52:31;14.50;;;7.38;;
72584;SDS011;60618;40.084;32.908;2023-02-03T09:55:25;16.63;;;7.93;;
72584;SDS011;60618;40.084;32.908;2023-02-03T09:58:14;14.85;;;7.57;;
72584;SDS011;60618;40.084;32.908;2023-02-03T10:00:45;16.45;;;8.10;;
72584;SDS011;60618;40.084;32.908;2023-02-03T10:06:11;17.30;;;8.68;;
72584;SDS011;60618;40.084;32.908;2023-02-03T10:20:04;19.05;;;9.35;;
72584;SDS011;60618;40.084;32.908;2023-02-03T10:22:45;18.45;;;9.27;;
72584;SDS011;60618;40.084;32.908;2023-02-03T10:25:19;19.27;;;10.20;;
72584;SDS011;60618;40.084;32.908;2023-02-03T10:27:58;18.67;;;8.63;;
72584;SDS011;60618;40.084;32.908;2023-02-03T10:30:32;18.70;;;9.57;;
72584;SDS011;60618;40.084;32.908;2023-02-03T10:33:11;19.63;;;9.10;;
72584;SDS011;60618;40.084;32.908;2023-02-03T10:35:50;17.63;;;8.82;;
72584;SDS011;60618;40.084;32.908;2023-02-03T10:38:48;17.27;;;8.55;;
72584;SDS011;60618;40.084;32.908;2023-02-03T10:41:23;18.20;;;9.13;;
72584;SDS011;60618;40.084;32.908;2023-02-03T10:43:50;20.50;;;9.80;;
72584;SDS011;60618;40.084;32.908;2023-02-03T10:46:19;18.98;;;8.70;;
72584;SDS011;60618;40.084;32.908;2023-02-03T10:48:52;17.20;;;8.20;;
72584;SDS011;60618;40.084;32.908;2023-02-03T10:51:21;17.80;;;8.82;;
72584;SDS011;60618;40.084;32.908;2023-02-03T10:53:52;14.10;;;7.50;;
72584;SDS011;60618;40.084;32.908;2023-02-03T10:56:20;16.10;;;8.13;;
72584;SDS011;60618;40.084;32.908;2023-02-03T10:59:21;17.20;;;8.20;;
72584;SDS011;60618;40.084;32.908;2023-02-03T11:01:55;16.52;;;8.27;;
72584;SDS011;60618;40.084;32.908;2023-02-03T11:04:26;19.00;;;8.35;;
72584;SDS011;60618;40.084;32.908;2023-02-03T11:06:59;15.90;;;7.90;;
72584;SDS011;60618;40.084;32.908;2023-02-03T11:09:30;22.33;;;9.35;;
72584;SDS011;60618;40.084;32.908;2023-02-03T11:12:06;17.70;;;8.93;;
72584;SDS011;60618;40.084;32.908;2023-02-03T11:14:39;20.73;;;9.32;;
72584;SDS011;60618;40.084;32.908;2023-02-03T11:17:11;21.02;;;10.30;;
72584;SDS011;60618;40.084;32.908;2023-02-03T11:19:50;19.42;;;9.30;;
72584;SDS011;60618;40.084;32.908;2023-02-03T11:22:25;17.92;;;8.70;;
72584;SDS011;60618;40.084;32.908;2023-02-03T11:24:59;27.20;;;10.52;;
72584;SDS011;60618;40.084;32.908;2023-02-03T11:27:29;21.85;;;10.18;;
72584;SDS011;60618;40.084;32.908;2023-02-03T11:32:52;20.67;;;9.85;;
72584;SDS011;60618;40.084;32.908;2023-02-03T11:35:20;22.88;;;11.10;;
72584;SDS011;60618;40.084;32.908;2023-02-03T11:37:56;20.38;;;10.00;;
72584;SDS011;60618;40.084;32.908;2023-02-03T11:45:27;20.45;;;10.73;;
72584;SDS011;60618;40.084;32.908;2023-02-03T11:48:16;19.13;;;9.95;;
72584;SDS011;60618;40.084;32.908;2023-02-03T12:13:37;15.70;;;8.85;;
72584;SDS011;60618;40.084;32.908;2023-02-03T12:21:49;15.32;;;8.23;;
72584;SDS011;60618;40.084;32.908;2023-02-03T12:27:13;16.38;;;7.82;;
72584;SDS011;60618;40.084;32.908;2023-02-03T12:32:47;15.15;;;7.53;;
72584;SDS011;60618;40.084;32.908;2023-02-03T12:35:26;15.25;;;7.63;;
72584;SDS011;60618;40.084;32.908;2023-02-03T12:38:02;13.50;;;7.07;;
72584;SDS011;60618;40.084;32.908;2023-02-03T12:40:49;13.82;;;7.05;;
72584;SDS011;60618;40.084;32.908;2023-02-03T12:46:16;12.25;;;6.43;;
72584;SDS011;60618;40.084;32.908;2023-02-03T12:51:39;10.30;;;5.70;;
72584;SDS011;60618;40.084;32.908;2023-02-03T12:57:00;10.27;;;5.20;;
72584;SDS011;60618;40.084;32.908;2023-02-03T12:59:41;11.23;;;5.68;;
72584;SDS011;60618;40.084;32.908;2023-02-03T13:02:17;11.13;;;5.53;;
72584;SDS011;60618;40.084;32.908;2023-02-03T13:05:00;12.60;;;6.10;;
72584;SDS011;60618;40.084;32.908;2023-02-03T13:07:37;10.95;;;6.30;;
72584;SDS011;60618;40.084;32.908;2023-02-03T13:10:18;12.00;;;5.90;;
72584;SDS011;60618;40.084;32.908;2023-02-03T13:12:54;10.90;;;5.57;;
72584;SDS011;60618;40.084;32.908;2023-02-03T13:15:25;12.38;;;5.88;;
72584;SDS011;60618;40.084;32.908;2023-02-03T13:18:02;11.20;;;5.60;;
72584;SDS011;60618;40.084;32.908;2023-02-03T13:20:39;13.57;;;6.25;;
72584;SDS011;60618;40.084;32.908;2023-02-03T13:23:09;11.32;;;6.00;;
72584;SDS011;60618;40.084;32.908;2023-02-03T13:39:28;10.52;;;5.22;;
72584;SDS011;60618;40.084;32.908;2023-02-03T13:42:10;9.70;;;5.07;;
72584;SDS011;60618;40.084;32.908;2023-02-03T13:44:45;11.68;;;5.57;;
72584;SDS011;60618;40.084;32.908;2023-02-03T13:47:15;10.00;;;5.18;;
72584;SDS011;60618;40.084;32.908;2023-02-03T13:49:51;9.43;;;5.20;;
72584;SDS011;60618;40.084;32.908;2023-02-03T13:52:30;10.23;;;5.38;;
72584;SDS011;60618;40.084;32.908;2023-02-03T13:55:00;10.23;;;5.30;;
72584;SDS011;60618;40.084;32.908;2023-02-03T13:57:33;10.20;;;5.03;;
72584;SDS011;60618;40.084;32.908;2023-02-03T14:00:06;10.23;;;4.93;;
72584;SDS011;60618;40.084;32.908;2023-02-03T14:02:53;9.53;;;4.73;;
72584;SDS011;60618;40.084;32.908;2023-02-03T14:16:35;9.53;;;5.00;;
72584;SDS011;60618;40.084;32.908;2023-02-03T14:19:10;9.32;;;4.75;;
72584;SDS011;60618;40.084;32.908;2023-02-03T14:24:13;10.57;;;5.10;;
72584;SDS011;60618;40.084;32.908;2023-02-03T14:26:45;9.40;;;4.45;;
72584;SDS011;60618;40.084;32.908;2023-02-03T14:29:25;9.00;;;4.37;;
72584;SDS011;60618;40.084;32.908;2023-02-03T14:32:01;8.60;;;4.40;;
72584;SDS011;60618;40.084;32.908;2023-02-03T14:34:38;8.05;;;4.65;;
72584;SDS011;60618;40.084;32.908;2023-02-03T14:37:18;8.85;;;4.60;;
72584;SDS011;60618;40.084;32.908;2023-02-03T14:57:49;10.97;;;5.93;;
72584;SDS011;60618;40.084;32.908;2023-02-03T15:08:01;10.20;;;5.63;;
72584;SDS011;60618;40.084;32.908;2023-02-03T15:10:29;9.27;;;4.90;;
72584;SDS011;60618;40.084;32.908;2023-02-03T15:15:55;10.93;;;5.88;;
72584;SDS011;60618;40.084;32.908;2023-02-03T15:18:31;11.80;;;6.60;;
72584;SDS011;60618;40.084;32.908;2023-02-03T15:21:00;11.65;;;6.20;;
72584;SDS011;60618;40.084;32.908;2023-02-03T15:23:49;11.57;;;6.20;;
72584;SDS011;60618;40.084;32.908;2023-02-03T15:28:56;10.88;;;6.35;;
72584;SDS011;60618;40.084;32.908;2023-02-03T15:31:35;13.45;;;6.88;;
72584;SDS011;60618;40.084;32.908;2023-02-03T15:34:11;12.30;;;6.78;;
72584;SDS011;60618;40.084;32.908;2023-02-03T15:36:56;11.77;;;6.10;;
72584;SDS011;60618;40.084;32.908;2023-02-03T15:39:35;15.40;;;7.72;;
72584;SDS011;60618;40.084;32.908;2023-02-03T15:45:06;11.43;;;6.13;;
72584;SDS011;60618;40.084;32.908;2023-02-03T15:47:35;10.43;;;5.40;;
72584;SDS011;60618;40.084;32.908;2023-02-03T15:52:58;13.63;;;7.28;;
72584;SDS011;60618;40.084;32.908;2023-02-03T15:58:02;12.07;;;6.30;;
72584;SDS011;60618;40.084;32.908;2023-02-03T16:00:30;11.10;;;5.57;;
72584;SDS011;60618;40.084;32.908;2023-02-03T16:03:05;8.90;;;4.90;;
72584;SDS011;60618;40.084;32.908;2023-02-03T16:05:42;12.43;;;6.70;;
72584;SDS011;60618;40.084;32.908;2023-02-03T16:13:51;19.02;;;9.70;;
72584;SDS011;60618;40.084;32.908;2023-02-03T16:16:24;22.13;;;9.87;;
72584;SDS011;60618;40.084;32.908;2023-02-03T16:18:55;19.77;;;9.60;;
72584;SDS011;60618;40.084;32.908;2023-02-03T16:21:28;19.48;;;9.73;;
72584;SDS011;60618;40.084;32.908;2023-02-03T16:23:57;23.98;;;11.35;;
72584;SDS011;60618;40.084;32.908;2023-02-03T16:26:25;19.60;;;9.55;;
72584;SDS011;60618;40.084;32.908;2023-02-03T16:31:29;16.65;;;8.13;;
72584;SDS011;60618;40.084;32.908;2023-02-03T16:34:16;16.20;;;8.00;;
72584;SDS011;60618;40.084;32.908;2023-02-03T16:36:44;15.45;;;7.55;;
72584;SDS011;60618;40.084;32.908;2023-02-03T16:39:11;16.42;;;7.15;;
72584;SDS011;60618;40.084;32.908;2023-02-03T16:41:38;12.00;;;6.15;;
72584;SDS011;60618;40.084;32.908;2023-02-03T16:44:07;11.32;;;5.05;;
72584;SDS011;60618;40.084;32.908;2023-02-03T16:46:36;12.30;;;5.60;;
72584;SDS011;60618;40.084;32.908;2023-02-03T16:49:03;9.88;;;4.68;;
72584;SDS011;60618;40.084;32.908;2023-02-03T16:51:33;9.73;;;4.18;;
72584;SDS011;60618;40.084;32.908;2023-02-03T16:54:04;9.23;;;4.05;;
72584;SDS011;60618;40.084;32.908;2023-02-03T16:56:35;10.18;;;4.82;;
72584;SDS011;60618;40.084;32.908;2023-02-03T16:59:02;11.30;;;5.07;;
72584;SDS011;60618;40.084;32.908;2023-02-03T17:01:29;9.18;;;3.83;;
72584;SDS011;60618;40.084;32.908;2023-02-03T17:03:56;9.65;;;3.90;;
72584;SDS011;60618;40.084;32.908;2023-02-03T17:06:23;9.05;;;3.67;;
72584;SDS011;60618;40.084;32.908;2023-02-03T17:08:50;9.38;;;3.60;;
72584;SDS011;60618;40.084;32.908;2023-02-03T17:11:18;8.35;;;3.70;;
72584;SDS011;60618;40.084;32.908;2023-02-03T17:13:46;8.65;;;3.70;;
72584;SDS011;60618;40.084;32.908;2023-02-03T17:16:15;7.93;;;3.97;;
72584;SDS011;60618;40.084;32.908;2023-02-03T17:18:47;8.48;;;3.63;;
72584;SDS011;60618;40.084;32.908;2023-02-03T17:21:16;8.52;;;3.60;;
72584;SDS011;60618;40.084;32.908;2023-02-03T17:23:45;9.77;;;4.10;;